< < Back
Terminal Aerodrome Forecast


Current Version              Previous Versions:   1  2  3  4  5  6  7  8  9  

Terminal Aerodrome Forecast

563
FTUS42 KCHS 041816 AAA
TAFCHS
TAF AMD
KCHS 041816Z 0418/0518 33009KT P6SM SCT025 BKN035
     FM042100 22007KT P6SM SCT030 SCT060
     FM051200 26007KT P6SM FEW030=

Latest METAR

042
SAUS80 KWBC 042200 RRA
MTRCHS
METAR KCHS 042156Z 23006KT 10SM FEW040 SCT250 33/23 A2994 RMK AO2 SLP138
T03280233


USA.gov is the U.S. government's official web portal to all federal, state and local government web resources and services.